Duckwater, Nevada Weather observations

Data are for 10 minute period ending at time listed.
 Day   Time   Solar   Ave.   Ave.  Ave.  Vector  Max.   Baro.   Total    
  of    of     Rad.   Air    Rel.  Wind   Wind   Wind  Press.  Precip.   
Year   Day            Temp.  Hum.  Speed  Dir.   Gust                    
2015   (PST)   w/m2    F      %     mph   deg.    mph    mb.     in.    
-----------------------------------------------------------------------
  58    0:00      0   25.4    70    2.5   345     3.8   999.0   0.00  
  58    0:10      0   21.7    74    1.5   215     2.5   999.0   0.00  
  58    0:20      0   22.3    75    1.0   225     2.3   999.0   0.00  
  58    0:30      0   23.3    74    1.8   225     2.6   999.0   0.00  
  58    0:40      0   23.9    72    3.2    24     4.5   999.0   0.00  
  58    0:50      0   24.4    74    1.4    25     3.3   999.0   0.00  
  58    1:00      0   25.3    73    2.3    11     3.6   999.0   0.00  
  58    1:10      0   25.7    69    3.8   351     5.2   999.0   0.00  
  58    1:20      0   25.1    68    4.2    26     6.2   999.0   0.00  
  58    1:30      0   24.4    70    4.5    23     7.2   999.0   0.00  
  58    1:40      0   25.0    70    4.6    15     6.8   999.0   0.00  
  58    1:50      0   26.2    68    3.4    14     5.5   999.0   0.00  
  58    2:00      0   26.4    68    3.1   329     4.9   999.0   0.00  
  58    2:10      0   24.4    72    2.3   285     4.1   999.0   0.00  
  58    2:20      0   24.6    72    1.9   294     3.2   999.0   0.00  
  58    2:30      0   25.8    69    0.9   294     2.7   999.0   0.00  
  58    2:40      0   26.6    67    0.0   300     0.6   999.0   0.00  
  58    2:50      0   26.0    69    2.3   330     4.4   999.0   0.00  
  58    3:00      0   27.3    68    2.6     0     3.7   999.0   0.00  
  58    3:10      0   28.0    66    2.6   360     3.9   999.0   0.00  
  58    3:20      0   28.1    66    3.1   354     5.1   999.0   0.00  
  58    3:30      0   28.0    66    3.1   358     5.1   999.0   0.00  
  58    3:40      0   27.8    65    2.4   189     4.2   999.0   0.00  
  58    3:50      0   26.4    68    2.0   186     4.0   999.0   0.00  
  58    4:00      0   26.0    69    3.1   299     4.8   999.0   0.00  
  58    4:10      0   25.7    68    4.6   331     6.1   999.0   0.00  
  58    4:20      0   25.4    68    4.1   355     6.2   999.0   0.00  
  58    4:30      0   25.1    68    3.5   348     5.7   999.0   0.00  
  58    4:40      0   25.0    69    3.5   330     6.4   999.0   0.00  
  58    4:50      0   24.9    70    2.6   324     4.0   999.0   0.00  
  58    5:00      0   24.9    69    3.9   316     5.9   999.0   0.00  
  58    5:10      0   25.1    69    3.4   317     6.1   999.0   0.00  
  58    5:20      0   25.6    69    0.9   352     3.7   999.0   0.00  
  58    5:30      0   26.0    68    0.6   346     1.4   999.0   0.00  
  58    5:40      0   26.1    68    3.3   307     6.8   999.0   0.00  
  58    5:50      0   25.9    69    3.4   300     5.4   999.0   0.00  
  58    6:00      0   26.2    69    2.5   321     3.3   999.0   0.00  
  58    6:10      0   26.1    69    2.9   349     4.5   999.0   0.00  
  58    6:20      3   26.3    67    2.0     6     3.4   999.0   0.00  
  58    6:30      6   26.9    67    3.5    10     5.2   999.0   0.00  
  58    6:40     12   27.2    66    3.7    31     6.5   999.0   0.00  
  58    6:50     31   27.4    66    2.9    16     4.9   999.0   0.00  
  58    7:00     51   28.4    65    1.2    20     1.7   999.0   0.00  
  58    7:10     83   28.9    64    2.5   266     4.2   999.0   0.00  
  58    7:20    124   29.3    65    1.8   267     3.1   999.0   0.00  
  58    7:30    115   30.3    63    2.7   278     4.1   999.0   0.00  
  58    7:40    152   30.4    62    2.5   309     4.2   999.0   0.00  
  58    7:50    247   31.9    59    1.3   293     3.0   999.0   0.00  
  58    8:00    178   33.9    54    0.2   248     2.0   999.0   0.00  
  58    8:10    354   34.7    53    0.6   212     1.8   999.0   0.00  
  58    8:20    400   37.6    48    0.9   185     3.3   999.0   0.00  
  58    8:30    307   38.7    45    1.2   190     4.5   999.0   0.00  
  58    8:40    423   38.3    46    4.4   198     7.2   999.0   0.00  
  58    8:50    415   38.7    44    4.8   181     7.5   999.0   0.00  
  58    9:00    273   39.0    43    5.0   171     7.3   999.0   0.00  
  58    9:10    252   38.5    44    5.1   182     7.7   999.0   0.00  
  58    9:20    274   38.9    44    5.0   163     7.8   999.0   0.00  
  58    9:30    281   39.3    42    4.9   157     7.8   999.0   0.00  
  58    9:40    337   39.6    42    5.9   158     8.6   999.0   0.00  
  58    9:50    406   39.8    42    6.1   174     9.3   999.0   0.00  
  58   10:00    382   40.2    41    5.9   157     9.1   999.0   0.00  
  58   10:10    407   41.0    40    5.5   151     9.6   999.0   0.00  
  58   10:20    401   40.8    40    6.1   142     8.8   999.0   0.00  
  58   10:30    400   41.4    39    5.5   140     9.2   999.0   0.00  
  58   10:40    246   41.0    39    6.2   154    11.0   999.0   0.00  
  58   10:50    290   40.7    40    6.3   148     9.6   999.0   0.00  
  58   11:00    460   41.2    39    5.4   148     9.6   999.0   0.00  
  58   11:10    335   42.0    37    5.6   138     9.1   999.0   0.00  
  58   11:20    290   41.9    36    5.3   139    10.3   999.0   0.00  
  58   11:30    643   42.1    38    6.3   148    11.5   999.0   0.00  
  58   11:40    709   43.1    36    5.1   110    11.8   999.0   0.00  
  58   11:50    921   45.8    32    7.3   145    13.4   999.0   0.00  
  58   12:00    728   45.7    31    7.8   146    14.7   999.0   0.00  
  58   12:10    999  999.0   999  999.0   999   999.0   999.0  999.00  
  58   12:20    531   45.5    31    5.7   184    12.8   999.0   0.00  
  58   12:30    665   45.4    31    5.5   168    12.9   999.0   0.00  
  58   12:40    441   46.1    30    6.3   146    13.7   999.0   0.00  
  58   12:50    700   45.5    30    7.8   133    14.0   999.0   0.00  
  58   13:00    804   47.0    29    7.8   139    13.5   999.0   0.00  
  58   13:10    602   47.6    29    6.8   145    18.9   999.0   0.00  
  58   13:20    419   47.0    30    6.6   141    13.7   999.0   0.00  
  58   13:30    559   46.6    30    4.7   130     9.1   999.0   0.00  
  58   13:40    605   47.5    30    3.3   132    11.4   999.0   0.00  
  58   13:50    323   47.3    29    4.1   171     9.2   999.0   0.00  
  58   14:00    306   46.8    30    6.0   169    12.0   999.0   0.00  
  58   14:10    274   46.1    30    7.9   156    14.8   999.0   0.00  
  58   14:20    170   45.1    31    8.0   134    14.3   999.0   0.00  
  58   14:30    306   45.5    31    4.6   144    12.1   999.0   0.00  
  58   14:40    308   46.1    31    7.9   179    17.0   999.0   0.00  
  58   14:50    209   45.9    32    8.6   188    20.5   999.0   0.00  
  58   15:00    139   43.9    37    8.3   249    17.4   999.0   0.00  
  58   15:10    179   43.4    38    9.1   288    18.1   999.0   0.00  
  58   15:20    190   41.3    53   14.7   258    19.9   999.0   0.00  
  58   15:30    172   40.4    57   12.2   252    17.5   999.0   0.00  
  58   15:40    104   39.9    58   10.4   262    15.0   999.0   0.00  
  58   15:50     91   39.9    58    8.8   256    12.1   999.0   0.00  
  58   16:00     98   39.1    62    6.3   268    12.3   999.0   0.00  
  58   16:10     49   38.4    64    2.6   310     7.2   999.0   0.00  
  58   16:20     42   38.3    65    3.4   287     7.0   999.0   0.00  
  58   16:30     41   37.9    68    6.0   247     7.7   999.0   0.00  
  58   16:40     75   38.0    68    5.1   265     7.2   999.0   0.00  
  58   16:50     55   38.3    68    4.8   293     7.5   999.0   0.00  
  58   17:00     19   38.1    67    4.7   286     8.0   999.0   0.00  
  58   17:10     15   37.4    69    3.6   285     5.0   999.0   0.00  
  58   17:20     15   36.5    72    3.7   287     5.3   999.0   0.00  
  58   17:30      8   35.3    77    4.1   324     6.4   999.0   0.00  
  58   17:40      3   35.3    78    5.6   340     8.7   999.0   0.00  
  58   17:50      0   35.7    78    6.3   342     9.3   999.0   0.00  
  58   18:00      0   35.3    79    5.2   320     8.8   999.0   0.00  
  58   18:10      0   35.1    79    3.0   303     4.7   999.0   0.00  
  58   18:20      0   34.8    79    2.9   287     4.2   999.0   0.00  
  58   18:30      0   34.6    80    3.0   289     4.1   999.0   0.00  
  58   18:40      0   34.5    81    3.2   328     4.2   999.0   0.00  
  58   18:50      0   34.8    81    2.2   305     4.0   999.0   0.00  
  58   19:00      0   34.9    81    2.8   308     4.2   999.0   0.00  
  58   19:10      0   35.1    80    3.8   295     5.4   999.0   0.00  
  58   19:20      0   36.1    75    7.9   280    14.2   999.0   0.00  
  58   19:30      0   33.8    86    8.9   286    14.4   999.0   0.00  
  58   19:40      0   32.0    94    5.7   289    10.4   999.0   0.00  
  58   19:50      0   31.9    96    6.4   282    11.4   999.0   0.00  
  58   20:00      0   31.8    97    3.3   303     5.8   999.0   0.00  
  58   20:10      0   31.6    97    3.9    63     7.9   999.0   0.00  
  58   20:20      0   31.5    97    3.9    68     6.9   999.0   0.00  
  58   20:30      0   31.5    98    1.5    58     4.1   999.0   0.00  
  58   20:40      0   31.3    98    0.7    61     2.0   999.0   0.00  
  58   20:50      0   30.9    98    0.0     0     0.0   999.0   0.00  
  58   21:00      0   30.2    98    0.0     0     0.0   999.0   0.00  
  58   21:10      0   29.6    98    0.0     0     0.0   999.0   0.00  
  58   21:20      0   29.6    98    0.0     0     0.0   999.0   0.00  
  58   21:30      0   30.0    98    1.2   244     5.0   999.0   0.00  
  58   21:40      0   30.6    98    2.0   232     4.8   999.0   0.00  
  58   21:50      0   30.5    98    1.4   269     2.3   999.0   0.00  
  58   22:00      0   30.3    98    1.1   272     1.5   999.0   0.00  

Return to Duckwater graphs page.


Western Regional Climate Center,wrcc@dri.edu